KCLL - College Station/East, TX, US

Issued at 1720 UTC 16 Oct 2021
Updated at 1819 UTC 16 Oct 2021
Potential Impact None Slight Moderate High
Time1753Z 16/19Z 16/20Z 16/21Z 16/22Z 16/23Z 17/00Z 17/01Z 17/02Z 17/03Z 17/04Z 17/05Z 17/06Z 17/07Z>>
Type OBS PRVL PRVL PRVL PRVL PRVL PRVL PRVL PRVL PRVL PRVL PRVL PRVL PRVL
VIS 10 >6 >6 >6 >6 >6 >6 >6 >6 >6 >6 >6 >6 >6
CIG -- -- -- -- -- -- -- -- -- -- -- -- -- --
Cover CLR SKC SKC SKC SKC SKC SKC FEW FEW FEW FEW FEW FEW FEW
FltCat VFR VFR VFR VFR VFR VFR VFR VFR VFR VFR VFR VFR VFR VFR
WX -- -- -- -- -- -- -- -- -- -- -- -- -- --
WDir 10 30 30 30 30 30 30 360 360 360 360 360 360 360
WSpd 12 14 14 14 14 14 14 6 6 6 6 6 6 6
WGst -- -- -- -- -- -- -- -- -- -- -- -- -- --
Raw TAF
KCLL 161720Z 1618/1718 03014KT P6SM SKC
  FM170100 36006KT P6SM FEW250
  FM171400 04005KT P6SM FEW250


Raw METAR
KCLL 161753Z 01012KT 10SM CLR 23/06 A3032 RMK AO2 SLP264 T02280061 10228 20122 58009
KCLL 161653Z 03014KT 10SM CLR 22/05 A3034 RMK AO2 SLP270 T02170050
KCLL 161553Z 02012G19KT 10SM CLR 21/07 A3035 RMK AO2 SLP273 T02060067

METAR Board
Radar Display
Forecast Discussion
For situational awareness. Not to be used for flight planning purposes.